createdAt,value
2018-03-27T00:00:17.778Z,29.70
2018-03-27T00:01:17.750Z,28.80
2018-03-27T00:02:17.739Z,29.50
2018-03-27T00:03:17.719Z,28.60
2018-03-27T00:04:17.702Z,27.90
2018-03-27T00:05:17.718Z,28.70
2018-03-27T00:06:17.659Z,29.80
2018-03-27T00:07:17.640Z,28.70
2018-03-27T00:08:17.626Z,30.60
2018-03-27T00:09:17.612Z,29.90
2018-03-27T00:10:17.586Z,30.50
2018-03-27T00:11:17.564Z,28.70
2018-03-27T00:12:17.549Z,30.90
2018-03-27T00:13:17.529Z,29.70
2018-03-27T00:14:17.519Z,28.70
2018-03-27T00:15:17.489Z,29.80
2018-03-27T00:16:17.469Z,28.80
2018-03-27T00:17:17.450Z,29.90
2018-03-27T00:18:17.429Z,29.10
2018-03-27T00:19:17.408Z,29.30
2018-03-27T00:20:17.389Z,29.50
2018-03-27T00:21:17.368Z,28.90
2018-03-27T00:22:17.354Z,29.30
2018-03-27T00:23:17.346Z,29.60
2018-03-27T00:24:17.312Z,29.00
2018-03-27T00:25:17.291Z,31.40
2018-03-27T00:26:17.277Z,29.70
2018-03-27T00:27:17.258Z,31.20
2018-03-27T00:28:17.242Z,29.60
2018-03-27T00:29:17.214Z,31.70
2018-03-27T00:30:17.199Z,29.30
2018-03-27T00:31:17.178Z,29.70
2018-03-27T00:32:17.162Z,30.60
2018-03-27T00:33:17.138Z,29.60
2018-03-27T00:34:17.118Z,31.80
2018-03-27T00:35:17.106Z,31.30
2018-03-27T00:36:17.083Z,29.50
2018-03-27T00:37:17.075Z,29.90
2018-03-27T00:38:17.043Z,30.90
2018-03-27T00:39:17.030Z,30.20
2018-03-27T00:40:17.007Z,30.40
2018-03-27T00:41:16.988Z,31.00
2018-03-27T00:42:16.966Z,30.40
2018-03-27T00:43:16.950Z,31.90
2018-03-27T00:44:16.979Z,31.40
2018-03-27T00:45:16.909Z,30.90
2018-03-27T00:46:16.891Z,30.90
2018-03-27T00:47:16.873Z,31.30
2018-03-27T00:48:16.860Z,32.50
2018-03-27T00:49:16.842Z,31.20
2018-03-27T00:50:16.819Z,31.60
2018-03-27T00:51:16.799Z,31.30
2018-03-27T00:52:16.777Z,32.20
2018-03-27T00:53:16.760Z,32.20
2018-03-27T00:54:16.739Z,31.30
2018-03-27T00:55:16.719Z,31.80
2018-03-27T00:56:16.700Z,33.00
2018-03-27T00:57:16.680Z,32.20
2018-03-27T00:58:16.666Z,32.30
2018-03-27T00:59:16.646Z,31.10
2018-03-27T01:00:16.675Z,34.50
2018-03-27T01:01:16.604Z,32.80
2018-03-27T01:02:16.589Z,31.10
2018-03-27T01:03:16.573Z,31.80
2018-03-27T01:04:16.558Z,33.00
2018-03-27T01:05:16.527Z,33.50
2018-03-27T01:06:16.560Z,32.90
2018-03-27T01:07:16.492Z,32.10
2018-03-27T01:08:16.471Z,32.80
2018-03-27T01:09:16.457Z,31.70
2018-03-27T01:10:16.489Z,33.20
2018-03-27T01:11:16.416Z,32.40
2018-03-27T01:12:16.446Z,33.00
2018-03-27T01:13:16.377Z,32.20
2018-03-27T01:14:16.357Z,32.90
2018-03-27T01:15:16.588Z,33.40
2018-03-27T01:16:16.320Z,33.40
2018-03-27T01:17:16.302Z,32.40
2018-03-27T01:18:16.280Z,32.70
2018-03-27T01:19:16.263Z,32.70
2018-03-27T01:20:16.241Z,34.10
2018-03-27T01:21:16.227Z,33.60
2018-03-27T01:22:16.209Z,32.80
2018-03-27T01:23:16.189Z,32.30
2018-03-27T01:24:16.170Z,32.00
2018-03-27T01:25:16.147Z,34.90
2018-03-27T01:26:16.129Z,31.90
2018-03-27T01:27:16.108Z,33.50
2018-03-27T01:28:16.093Z,33.10
2018-03-27T01:29:16.069Z,34.00
2018-03-27T01:30:16.068Z,34.70
2018-03-27T01:31:16.034Z,33.50
2018-03-27T01:32:16.013Z,33.00
2018-03-27T01:33:15.999Z,32.50
2018-03-27T01:34:15.976Z,33.90
2018-03-27T01:35:15.960Z,33.30
2018-03-27T01:36:15.939Z,34.20
2018-03-27T01:37:15.919Z,33.80
2018-03-27T01:38:15.899Z,34.10
2018-03-27T01:39:15.881Z,33.40
2018-03-27T01:40:15.863Z,33.70
2018-03-27T01:41:15.841Z,35.30
2018-03-27T01:42:15.825Z,35.70
2018-03-27T01:43:15.820Z,35.20
2018-03-27T01:44:15.790Z,35.20
2018-03-27T01:45:15.776Z,35.20
2018-03-27T01:46:15.751Z,34.90
2018-03-27T01:47:15.733Z,35.90
2018-03-27T01:48:15.710Z,35.30
2018-03-27T01:49:15.701Z,35.40
2018-03-27T01:50:15.682Z,37.70
2018-03-27T01:51:15.660Z,36.20
2018-03-27T01:52:15.636Z,37.40
2018-03-27T01:53:15.620Z,36.50
2018-03-27T01:54:15.600Z,36.90
2018-03-27T01:55:15.579Z,35.30
2018-03-27T01:56:15.559Z,36.80
2018-03-27T01:57:15.540Z,37.50
2018-03-27T01:58:15.520Z,37.60
2018-03-27T01:59:15.504Z,37.00
2018-03-27T02:00:15.480Z,37.50
2018-03-27T02:01:15.465Z,36.90
2018-03-27T02:02:15.449Z,36.60
2018-03-27T02:03:15.432Z,37.90
2018-03-27T02:04:15.405Z,38.10
2018-03-27T02:05:15.418Z,36.70
2018-03-27T02:06:15.370Z,37.70
2018-03-27T02:07:15.349Z,37.20
2018-03-27T02:08:15.336Z,36.40
2018-03-27T02:09:15.309Z,37.60
2018-03-27T02:10:15.291Z,37.60
2018-03-27T02:11:15.283Z,38.50
2018-03-27T02:12:15.352Z,38.80
2018-03-27T02:13:15.240Z,38.20
2018-03-27T02:14:15.216Z,36.70
2018-03-27T02:15:15.199Z,38.10
2018-03-27T02:16:15.178Z,38.00
2018-03-27T02:17:15.157Z,37.50
2018-03-27T02:18:15.186Z,37.90
2018-03-27T02:19:15.120Z,38.80
2018-03-27T02:20:15.099Z,37.40
2018-03-27T02:21:15.079Z,38.00
2018-03-27T02:22:15.060Z,37.80
2018-03-27T02:23:15.039Z,37.40
2018-03-27T02:24:15.020Z,38.10
2018-03-27T02:25:15.009Z,38.50
2018-03-27T02:26:14.982Z,38.80
2018-03-27T02:27:14.970Z,39.00
2018-03-27T02:28:14.996Z,39.40
2018-03-27T02:29:14.930Z,39.50
2018-03-27T02:30:14.909Z,39.70
2018-03-27T02:31:14.887Z,39.90
2018-03-27T02:32:14.871Z,40.00
2018-03-27T02:33:14.851Z,38.50
2018-03-27T02:34:14.828Z,39.20
2018-03-27T02:35:14.811Z,38.20
2018-03-27T02:36:14.790Z,38.60
2018-03-27T02:37:14.771Z,39.30
2018-03-27T02:38:14.804Z,39.00
2018-03-27T02:39:14.742Z,37.40
2018-03-27T02:40:14.722Z,38.90
2018-03-27T02:41:14.703Z,39.20
2018-03-27T02:42:14.681Z,40.30
2018-03-27T02:43:14.663Z,39.80
2018-03-27T02:44:14.641Z,41.00
2018-03-27T02:45:14.619Z,39.10
2018-03-27T02:46:14.598Z,41.20
2018-03-27T02:47:14.580Z,38.90
2018-03-27T02:48:14.561Z,39.50
2018-03-27T02:49:14.541Z,39.60
2018-03-27T02:50:14.527Z,43.40
2018-03-27T02:51:14.501Z,44.20
2018-03-27T02:52:14.485Z,42.30
2018-03-27T02:53:14.476Z,42.30
2018-03-27T02:54:14.451Z,42.60
2018-03-27T02:55:14.427Z,40.20
2018-03-27T02:56:14.407Z,40.70
2018-03-27T02:57:14.391Z,40.40
2018-03-27T02:58:14.381Z,41.20
2018-03-27T02:59:14.346Z,41.30
2018-03-27T03:00:14.331Z,42.80
2018-03-27T03:01:14.310Z,40.30
2018-03-27T03:02:14.289Z,40.00
2018-03-27T03:03:14.272Z,42.80
2018-03-27T03:04:14.249Z,40.80
2018-03-27T03:05:14.229Z,42.30
2018-03-27T03:06:14.231Z,42.90
2018-03-27T03:07:14.200Z,41.10
2018-03-27T03:08:14.181Z,42.10
2018-03-27T03:09:14.152Z,42.60
2018-03-27T03:10:14.140Z,41.70
2018-03-27T03:11:14.121Z,41.80
2018-03-27T03:12:14.101Z,41.90
2018-03-27T03:13:14.082Z,41.40
2018-03-27T03:14:14.061Z,42.70
2018-03-27T03:15:14.036Z,43.30
2018-03-27T03:16:14.021Z,41.40
2018-03-27T03:17:14.001Z,43.20
2018-03-27T03:18:13.981Z,42.40
2018-03-27T03:19:13.964Z,42.30
2018-03-27T03:20:13.999Z,41.40
2018-03-27T03:21:13.920Z,42.60
2018-03-27T03:22:13.951Z,40.30
2018-03-27T03:23:13.884Z,41.70
2018-03-27T03:24:13.869Z,41.70
2018-03-27T03:25:13.843Z,40.60
2018-03-27T03:26:13.873Z,41.60
2018-03-27T03:27:13.806Z,40.00
2018-03-27T03:28:13.811Z,40.80
2018-03-27T03:29:13.769Z,40.50
2018-03-27T03:30:13.754Z,38.70
2018-03-27T03:31:13.732Z,40.40
2018-03-27T03:32:13.710Z,41.20
2018-03-27T03:33:13.685Z,40.60
2018-03-27T03:34:13.671Z,39.70
2018-03-27T03:35:13.651Z,42.00
2018-03-27T03:36:13.635Z,41.50
2018-03-27T03:37:13.611Z,40.50
2018-03-27T03:38:13.593Z,41.80
2018-03-27T03:39:13.569Z,41.40
2018-03-27T03:40:13.621Z,42.70
2018-03-27T03:41:13.529Z,42.90
2018-03-27T03:42:13.510Z,41.70
2018-03-27T03:43:13.492Z,40.90
2018-03-27T03:44:13.472Z,39.70
2018-03-27T03:45:13.462Z,39.30
2018-03-27T03:46:13.489Z,41.80
2018-03-27T03:47:13.420Z,39.60
2018-03-27T03:48:13.410Z,39.90
2018-03-27T03:49:13.388Z,41.60
2018-03-27T03:50:13.361Z,41.10
2018-03-27T03:51:13.339Z,41.00
2018-03-27T03:52:13.369Z,40.70
2018-03-27T03:53:13.293Z,41.20
2018-03-27T03:54:13.277Z,40.30
2018-03-27T03:55:13.262Z,41.70
2018-03-27T03:56:13.242Z,42.30
2018-03-27T03:57:13.233Z,40.60
2018-03-27T03:58:13.204Z,39.80
2018-03-27T03:59:13.180Z,39.40
2018-03-27T04:00:13.161Z,40.20
2018-03-27T04:01:13.141Z,39.30
2018-03-27T04:02:13.120Z,39.60
2018-03-27T04:03:13.100Z,41.50
2018-03-27T04:04:13.083Z,41.90
2018-03-27T04:05:13.060Z,39.80
2018-03-27T04:06:13.045Z,40.80
2018-03-27T04:07:13.024Z,40.20
2018-03-27T04:08:13.010Z,39.70
2018-03-27T04:09:12.990Z,39.10
2018-03-27T04:10:12.963Z,41.30
2018-03-27T04:11:12.946Z,41.80
2018-03-27T04:12:12.923Z,40.10
2018-03-27T04:13:12.909Z,38.00
2018-03-27T04:14:12.895Z,38.80
2018-03-27T04:15:12.866Z,38.40
2018-03-27T04:16:12.848Z,39.80
2018-03-27T04:17:12.833Z,37.10
2018-03-27T04:18:12.809Z,39.00
2018-03-27T04:19:12.790Z,39.40
2018-03-27T04:20:12.772Z,39.50
2018-03-27T04:21:12.752Z,39.40
2018-03-27T04:22:12.727Z,40.00
2018-03-27T04:23:12.707Z,39.10
2018-03-27T04:24:12.689Z,39.00
2018-03-27T04:25:12.672Z,37.80
2018-03-27T04:26:12.659Z,38.60
2018-03-27T04:27:12.634Z,37.90
2018-03-27T04:28:12.609Z,39.10
2018-03-27T04:29:12.590Z,38.80
2018-03-27T04:30:12.570Z,38.10
2018-03-27T04:31:12.554Z,38.40
2018-03-27T04:32:12.539Z,40.00
2018-03-27T04:33:12.510Z,41.00
2018-03-27T04:34:12.500Z,39.70
2018-03-27T04:35:12.483Z,39.10
2018-03-27T04:36:12.458Z,38.60
2018-03-27T04:37:12.434Z,38.80
2018-03-27T04:38:12.420Z,38.30
2018-03-27T04:39:12.397Z,38.50
2018-03-27T04:40:12.382Z,40.90
2018-03-27T04:41:12.354Z,40.00
2018-03-27T04:42:12.338Z,40.60
2018-03-27T04:43:12.319Z,40.90
2018-03-27T04:44:12.349Z,40.00
2018-03-27T04:45:12.281Z,39.70
2018-03-27T04:46:12.311Z,40.10
2018-03-27T04:47:12.251Z,40.10
2018-03-27T04:48:12.312Z,40.50
2018-03-27T04:49:12.202Z,41.10
2018-03-27T04:50:12.227Z,41.20
2018-03-27T04:51:12.161Z,41.80
2018-03-27T04:52:12.139Z,41.80
2018-03-27T04:53:12.121Z,42.10
2018-03-27T04:54:12.199Z,40.50
2018-03-27T04:55:12.091Z,40.20
2018-03-27T04:56:12.063Z,40.10
2018-03-27T04:57:12.038Z,40.60
2018-03-27T04:58:12.075Z,39.40
2018-03-27T04:59:12.000Z,40.30
2018-03-27T05:00:12.077Z,41.10
2018-03-27T05:01:11.953Z,42.00
2018-03-27T05:02:12.000Z,42.60
2018-03-27T05:03:11.914Z,41.80
2018-03-27T05:04:12.053Z,40.70
2018-03-27T05:05:11.872Z,41.60
2018-03-27T05:06:11.852Z,41.20
2018-03-27T05:07:11.838Z,42.10
2018-03-27T05:08:11.862Z,39.90
2018-03-27T05:09:11.794Z,40.00
2018-03-27T05:10:11.776Z,41.70
2018-03-27T05:11:11.754Z,38.70
2018-03-27T05:12:11.740Z,40.50
2018-03-27T05:13:11.725Z,41.20
2018-03-27T05:14:11.695Z,38.90
2018-03-27T05:15:11.677Z,42.00
2018-03-27T05:16:11.653Z,40.60
2018-03-27T05:17:11.639Z,40.50
2018-03-27T05:18:11.614Z,39.80
2018-03-27T05:19:11.598Z,39.90
2018-03-27T05:20:11.576Z,39.50
2018-03-27T05:21:11.560Z,40.80
2018-03-27T05:22:11.536Z,38.80
2018-03-27T05:23:11.516Z,41.00
2018-03-27T05:24:11.495Z,39.70
2018-03-27T05:25:11.472Z,41.00
2018-03-27T05:26:11.451Z,40.60
2018-03-27T05:27:11.432Z,42.50
2018-03-27T05:28:11.415Z,42.60
2018-03-27T05:29:11.392Z,39.40
2018-03-27T05:30:11.370Z,41.30
2018-03-27T05:31:11.351Z,39.60
2018-03-27T05:32:11.338Z,41.00
2018-03-27T05:33:11.310Z,41.80
2018-03-27T05:34:11.296Z,43.10
2018-03-27T05:35:11.270Z,40.20
2018-03-27T05:36:11.252Z,40.00
2018-03-27T05:37:11.230Z,41.20
2018-03-27T05:38:11.210Z,41.40
2018-03-27T05:39:11.191Z,42.30
2018-03-27T05:40:11.174Z,41.50
2018-03-27T05:41:11.148Z,41.40
2018-03-27T05:42:11.129Z,41.80
2018-03-27T05:43:11.109Z,40.90
2018-03-27T05:44:11.090Z,41.70
2018-03-27T05:45:11.069Z,42.70
2018-03-27T05:46:11.053Z,42.30
2018-03-27T05:47:11.031Z,41.90
2018-03-27T05:48:11.011Z,41.70
2018-03-27T05:49:10.991Z,40.80
2018-03-27T05:50:10.966Z,41.60
2018-03-27T05:51:10.951Z,40.90
2018-03-27T05:52:10.928Z,42.70
2018-03-27T05:53:10.910Z,43.30
2018-03-27T05:54:10.888Z,42.00
2018-03-27T05:55:10.871Z,42.60
2018-03-27T05:56:10.849Z,43.00
2018-03-27T05:57:10.830Z,41.20
2018-03-27T05:58:10.810Z,42.60
2018-03-27T05:59:10.798Z,41.20
2018-03-27T06:00:10.772Z,43.20
2018-03-27T06:01:10.750Z,43.50
2018-03-27T06:02:10.781Z,42.40
2018-03-27T06:03:10.714Z,42.80
2018-03-27T06:04:10.692Z,42.60
2018-03-27T06:05:10.671Z,44.00
2018-03-27T06:06:10.650Z,43.80
2018-03-27T06:07:10.635Z,45.20
2018-03-27T06:08:10.651Z,44.90
2018-03-27T06:09:10.589Z,43.90
2018-03-27T06:10:10.565Z,47.50
2018-03-27T06:11:10.554Z,43.70
2018-03-27T06:12:10.533Z,44.40
2018-03-27T06:13:10.513Z,43.70
2018-03-27T06:14:10.494Z,44.40
2018-03-27T06:15:10.469Z,42.90
2018-03-27T06:16:10.455Z,41.70
2018-03-27T06:17:10.431Z,41.90
2018-03-27T06:18:10.410Z,40.50
2018-03-27T06:19:10.389Z,38.40
2018-03-27T06:20:10.369Z,39.70
2018-03-27T06:21:10.350Z,39.80
2018-03-27T06:22:10.329Z,40.20
2018-03-27T06:23:10.305Z,39.00
2018-03-27T06:24:10.302Z,38.20
2018-03-27T06:25:10.329Z,37.90
2018-03-27T06:26:10.258Z,38.80
2018-03-27T06:27:10.235Z,39.40
2018-03-27T06:28:10.210Z,41.00
2018-03-27T06:29:10.189Z,38.50
2018-03-27T06:30:10.217Z,38.70
2018-03-27T06:31:10.149Z,39.80
2018-03-27T06:32:10.280Z,39.20
2018-03-27T06:33:10.111Z,39.30
2018-03-27T06:34:10.101Z,39.40
2018-03-27T06:35:10.070Z,39.00
2018-03-27T06:36:10.053Z,38.20
2018-03-27T06:37:10.029Z,39.80
2018-03-27T06:38:10.023Z,40.40
2018-03-27T06:39:09.999Z,39.60
2018-03-27T06:40:09.970Z,40.40
2018-03-27T06:41:09.949Z,41.50
2018-03-27T06:42:09.969Z,40.30
2018-03-27T06:43:09.913Z,39.40
2018-03-27T06:44:09.896Z,39.00
2018-03-27T06:45:09.872Z,39.60
2018-03-27T06:46:09.852Z,39.30
2018-03-27T06:47:09.832Z,39.00
2018-03-27T06:48:09.821Z,39.60
2018-03-27T06:49:09.797Z,40.20
2018-03-27T06:50:09.783Z,40.90
2018-03-27T06:51:09.761Z,39.70
2018-03-27T06:52:09.741Z,40.40
2018-03-27T06:53:09.724Z,40.00
2018-03-27T06:54:09.702Z,39.40
2018-03-27T06:55:09.677Z,37.70
2018-03-27T06:56:09.664Z,37.70
2018-03-27T06:57:09.643Z,40.90
2018-03-27T06:58:09.623Z,39.40
2018-03-27T06:59:09.600Z,39.80
2018-03-27T07:00:09.585Z,37.80
2018-03-27T07:01:09.570Z,37.90
2018-03-27T07:02:09.589Z,38.70
2018-03-27T07:03:09.543Z,37.80
2018-03-27T07:04:09.512Z,38.30
2018-03-27T07:05:09.491Z,37.80
2018-03-27T07:06:09.500Z,37.50
2018-03-27T07:07:09.487Z,37.60
2018-03-27T07:08:09.438Z,37.80
2018-03-27T07:09:09.419Z,36.50
2018-03-27T07:10:09.400Z,37.20
2018-03-27T07:11:09.416Z,38.50
2018-03-27T07:12:09.413Z,38.30
2018-03-27T07:13:09.378Z,39.50
2018-03-27T07:14:09.339Z,40.40
2018-03-27T07:15:09.317Z,38.60
2018-03-27T07:16:09.301Z,38.40
2018-03-27T07:17:09.291Z,39.00
2018-03-27T07:18:09.266Z,36.90
2018-03-27T07:19:09.252Z,39.70
2018-03-27T07:20:09.242Z,38.40
2018-03-27T07:21:09.224Z,38.90
2018-03-27T07:22:09.205Z,38.80
2018-03-27T07:23:09.188Z,39.40
2018-03-27T07:24:09.264Z,39.60
2018-03-27T07:25:09.155Z,40.10
2018-03-27T07:26:09.249Z,40.90
2018-03-27T07:27:09.131Z,39.00
2018-03-27T07:28:09.225Z,38.00
2018-03-27T07:29:09.105Z,40.60
2018-03-27T07:30:09.230Z,42.70
2018-03-27T07:31:09.112Z,41.00
2018-03-27T07:32:09.050Z,40.10
2018-03-27T07:33:09.034Z,39.60
2018-03-27T07:34:09.072Z,39.40
2018-03-27T07:35:08.999Z,38.70
2018-03-27T07:36:09.149Z,39.00
2018-03-27T07:37:08.969Z,40.30
2018-03-27T07:38:08.955Z,38.30
2018-03-27T07:39:08.937Z,40.90
2018-03-27T07:40:08.924Z,40.50
2018-03-27T07:41:08.932Z,44.50
2018-03-27T07:42:08.885Z,43.30
2018-03-27T07:43:08.878Z,43.70
2018-03-27T07:44:08.919Z,43.00
2018-03-27T07:45:08.848Z,44.60
2018-03-27T07:46:08.918Z,44.90
2018-03-27T07:47:08.799Z,43.20
2018-03-27T07:48:08.786Z,43.30
2018-03-27T07:49:08.766Z,47.30
2018-03-27T07:50:08.749Z,47.30
2018-03-27T07:51:08.725Z,44.80
2018-03-27T07:52:08.760Z,47.20
2018-03-27T07:53:08.691Z,45.50
2018-03-27T07:54:08.719Z,45.00
2018-03-27T07:55:08.658Z,45.80
2018-03-27T07:56:08.687Z,43.60
2018-03-27T07:57:08.619Z,47.20
2018-03-27T07:58:08.605Z,44.30
2018-03-27T07:59:08.580Z,48.30
2018-03-27T08:00:08.560Z,49.10
2018-03-27T08:01:08.540Z,48.30
2018-03-27T08:02:08.529Z,46.50
2018-03-27T08:03:08.510Z,46.60
2018-03-27T08:04:08.486Z,50.90
2018-03-27T08:05:08.470Z,39.20
2018-03-27T08:06:08.450Z,41.70
2018-03-27T08:07:08.430Z,42.60
2018-03-27T08:08:08.420Z,43.30
2018-03-27T08:09:08.388Z,42.70
2018-03-27T08:10:08.369Z,48.80
2018-03-27T08:11:08.420Z,49.20
2018-03-27T08:12:08.348Z,49.50
2018-03-27T08:13:08.313Z,47.90
2018-03-27T08:14:08.292Z,49.20
2018-03-27T08:15:08.274Z,49.10
2018-03-27T08:16:08.252Z,52.10
2018-03-27T08:17:08.235Z,50.40
2018-03-27T08:18:08.221Z,53.80
2018-03-27T08:19:08.204Z,48.00
2018-03-27T08:20:08.180Z,53.40
2018-03-27T08:21:08.159Z,53.20
2018-03-27T08:22:08.135Z,53.10
2018-03-27T08:23:08.119Z,52.90
2018-03-27T08:24:08.236Z,50.00
2018-03-27T08:25:08.078Z,51.60
2018-03-27T08:26:08.072Z,50.70
2018-03-27T08:27:08.044Z,52.60
2018-03-27T08:28:08.027Z,53.70
2018-03-27T08:29:08.009Z,51.80
2018-03-27T08:30:07.993Z,52.30
2018-03-27T08:31:07.970Z,56.00
2018-03-27T08:32:07.946Z,52.90
2018-03-27T08:33:07.929Z,55.30
2018-03-27T08:34:07.909Z,56.90
2018-03-27T08:35:07.904Z,57.40
2018-03-27T08:36:07.876Z,56.70
2018-03-27T08:37:07.854Z,56.80
2018-03-27T08:38:07.839Z,53.40
2018-03-27T08:39:07.820Z,53.00
2018-03-27T08:40:07.849Z,54.70
2018-03-27T08:41:07.780Z,58.30
2018-03-27T08:42:07.810Z,60.90
2018-03-27T08:43:07.740Z,58.90
2018-03-27T08:44:07.773Z,61.50
2018-03-27T08:45:07.696Z,59.80
2018-03-27T08:46:07.692Z,59.20
2018-03-27T08:47:07.661Z,59.30
2018-03-27T08:48:07.658Z,61.00
2018-03-27T08:49:07.621Z,58.70
2018-03-27T08:50:07.710Z,58.60
2018-03-27T08:51:07.586Z,59.70
2018-03-27T08:52:07.568Z,61.50
2018-03-27T08:53:07.549Z,60.80
2018-03-27T08:54:07.552Z,61.30
2018-03-27T08:55:07.506Z,59.70
2018-03-27T08:56:07.510Z,58.70
2018-03-27T08:57:07.472Z,58.20
2018-03-27T08:58:07.469Z,56.50
2018-03-27T08:59:07.436Z,57.60
2018-03-27T09:00:07.420Z,56.50
2018-03-27T09:01:07.402Z,55.60
2018-03-27T09:02:07.432Z,55.20
2018-03-27T09:03:07.372Z,57.00
2018-03-27T09:04:07.451Z,56.60
2018-03-27T09:05:07.334Z,54.30
2018-03-27T09:06:07.366Z,53.80
2018-03-27T09:07:07.303Z,54.50
2018-03-27T09:08:07.286Z,56.80
2018-03-27T09:09:07.269Z,56.90
2018-03-27T09:10:07.250Z,57.40
2018-03-27T09:11:07.232Z,55.40
2018-03-27T09:12:07.221Z,52.10
2018-03-27T09:13:07.217Z,55.40
2018-03-27T09:14:07.203Z,52.20
2018-03-27T09:15:07.228Z,53.60
2018-03-27T09:16:07.171Z,55.60
2018-03-27T09:17:07.162Z,52.50
2018-03-27T09:18:07.151Z,56.90
2018-03-27T09:19:07.142Z,52.40
2018-03-27T09:20:07.122Z,54.00
2018-03-27T09:21:07.122Z,48.00
2018-03-27T09:22:07.103Z,51.10
2018-03-27T09:23:07.090Z,54.30
2018-03-27T09:24:07.085Z,53.00
2018-03-27T09:25:07.083Z,52.60
2018-03-27T09:26:07.069Z,52.20
2018-03-27T09:27:07.068Z,53.60
2018-03-27T09:28:07.045Z,56.10
2018-03-27T09:29:07.035Z,56.70
2018-03-27T09:30:07.033Z,56.10
2018-03-27T09:31:07.025Z,56.80
2018-03-27T09:32:07.012Z,57.40
2018-03-27T09:33:07.002Z,56.90
2018-03-27T09:34:06.992Z,59.30
2018-03-27T09:35:06.987Z,60.80
2018-03-27T09:36:06.981Z,65.00
2018-03-27T09:37:06.979Z,61.30
2018-03-27T09:38:06.958Z,66.30
2018-03-27T09:39:06.951Z,64.60
2018-03-27T09:40:06.945Z,67.90
2018-03-27T09:41:06.937Z,65.50
2018-03-27T09:42:06.935Z,69.50
2018-03-27T09:43:06.917Z,71.00
2018-03-27T09:44:06.910Z,71.90
2018-03-27T09:45:06.899Z,73.60
2018-03-27T09:46:06.891Z,75.00
2018-03-27T09:47:06.895Z,74.20
2018-03-27T09:48:06.884Z,75.80
2018-03-27T09:49:06.868Z,72.10
2018-03-27T09:50:06.860Z,71.90
2018-03-27T09:51:06.851Z,71.80
2018-03-27T09:52:06.840Z,75.40
2018-03-27T09:53:06.842Z,74.10
2018-03-27T09:54:06.826Z,73.60
2018-03-27T09:55:06.816Z,78.00
2018-03-27T09:56:06.807Z,76.70
2018-03-27T09:57:06.799Z,73.70
2018-03-27T09:58:06.793Z,71.80
2018-03-27T09:59:06.783Z,71.00
2018-03-27T10:00:06.770Z,73.60
2018-03-27T10:01:06.766Z,72.40
2018-03-27T10:02:06.755Z,74.40
2018-03-27T10:03:06.746Z,72.50
2018-03-27T10:04:06.737Z,71.20
2018-03-27T10:05:06.728Z,72.10
2018-03-27T10:06:06.720Z,70.40
2018-03-27T10:07:06.711Z,69.20
2018-03-27T10:08:06.703Z,65.50
2018-03-27T10:09:06.697Z,68.00
2018-03-27T10:10:06.686Z,66.30
2018-03-27T10:11:06.673Z,67.30
2018-03-27T10:12:06.676Z,68.70
2018-03-27T10:13:06.651Z,68.70
2018-03-27T10:14:06.641Z,67.60
2018-03-27T10:15:06.630Z,65.30
2018-03-27T10:16:06.619Z,67.10
2018-03-27T10:17:06.614Z,65.40
2018-03-27T10:18:06.601Z,64.30
2018-03-27T10:19:06.591Z,71.20
2018-03-27T10:20:06.584Z,73.80
2018-03-27T10:21:06.570Z,71.00
2018-03-27T10:22:06.620Z,70.50
2018-03-27T10:23:06.551Z,66.80
2018-03-27T10:24:06.542Z,72.30
2018-03-27T10:25:06.530Z,64.50
2018-03-27T10:26:06.520Z,59.20
2018-03-27T10:27:06.509Z,56.10
2018-03-27T10:28:06.500Z,55.50
2018-03-27T10:29:06.501Z,59.60
2018-03-27T10:30:06.483Z,53.50
2018-03-27T10:31:06.472Z,57.20
2018-03-27T10:32:06.464Z,59.70
2018-03-27T10:33:06.493Z,56.60
2018-03-27T10:34:06.442Z,57.40
2018-03-27T10:35:06.431Z,57.60
2018-03-27T10:36:06.430Z,57.00
2018-03-27T10:37:06.461Z,51.70
2018-03-27T10:38:06.485Z,50.00
2018-03-27T10:39:06.392Z,52.30
2018-03-27T10:40:06.381Z,53.20
2018-03-27T10:41:06.372Z,52.20
2018-03-27T10:42:06.361Z,49.40
2018-03-27T10:43:06.348Z,47.70
2018-03-27T10:44:06.492Z,44.50
2018-03-27T10:45:06.329Z,43.70
2018-03-27T10:46:06.381Z,48.40
2018-03-27T10:47:06.300Z,46.50
2018-03-27T10:48:06.341Z,45.70
2018-03-27T10:49:06.282Z,43.90
2018-03-27T10:50:06.276Z,45.80
2018-03-27T10:51:06.260Z,43.20
2018-03-27T10:52:06.361Z,44.40
2018-03-27T10:53:06.239Z,43.90
2018-03-27T10:54:06.276Z,44.00
2018-03-27T10:55:06.214Z,42.10
2018-03-27T10:56:06.203Z,42.40
2018-03-27T10:57:06.189Z,41.80
2018-03-27T10:58:06.198Z,38.20
2018-03-27T10:59:06.169Z,38.20
2018-03-27T11:00:06.161Z,32.00
2018-03-27T11:01:06.155Z,23.90
2018-03-27T11:02:06.138Z,22.60
2018-03-27T11:03:06.125Z,25.10
2018-03-27T11:04:06.123Z,25.10
2018-03-27T11:05:06.102Z,22.40
2018-03-27T11:06:06.092Z,20.60
2018-03-27T11:07:06.077Z,18.50
2018-03-27T11:08:06.067Z,18.90
2018-03-27T11:09:06.052Z,18.30
2018-03-27T11:10:06.052Z,19.50
2018-03-27T11:11:06.034Z,19.40
2018-03-27T11:12:06.020Z,18.00
2018-03-27T11:13:06.009Z,17.90
2018-03-27T11:14:05.992Z,17.80
2018-03-27T11:15:05.982Z,18.10
2018-03-27T11:16:05.974Z,18.20
2018-03-27T11:17:05.960Z,17.90
2018-03-27T11:18:05.943Z,17.30
2018-03-27T11:19:05.933Z,18.00
2018-03-27T11:20:05.922Z,19.60
2018-03-27T11:21:05.913Z,18.80
2018-03-27T11:22:05.892Z,19.80
2018-03-27T11:23:05.878Z,19.80
2018-03-27T11:24:05.869Z,20.40
2018-03-27T11:25:05.852Z,18.90
2018-03-27T11:26:05.849Z,19.90
2018-03-27T11:27:05.835Z,19.40
2018-03-27T11:28:05.814Z,19.90
2018-03-27T11:29:05.801Z,19.60
2018-03-27T11:30:05.794Z,20.00
2018-03-27T11:31:05.773Z,20.20
2018-03-27T11:32:05.762Z,20.80
2018-03-27T11:33:05.750Z,21.10
2018-03-27T11:34:05.736Z,16.80
2018-03-27T11:35:05.723Z,20.40
2018-03-27T11:36:05.713Z,19.70
2018-03-27T11:37:05.706Z,19.60
2018-03-27T11:38:05.692Z,39.70
2018-03-27T11:39:05.680Z,50.40
2018-03-27T11:40:05.659Z,34.00
2018-03-27T11:41:05.642Z,59.10
2018-03-27T11:42:05.637Z,65.60
2018-03-27T11:43:05.621Z,38.40
2018-03-27T11:44:05.607Z,147.30
2018-03-27T11:45:05.590Z,76.80
2018-03-27T11:46:05.582Z,39.30
2018-03-27T11:47:05.561Z,61.10
2018-03-27T11:48:05.554Z,37.00
2018-03-27T11:49:05.548Z,66.10
2018-03-27T11:50:05.527Z,29.80
2018-03-27T11:51:05.515Z,19.50
2018-03-27T11:52:05.517Z,18.00
2018-03-27T11:53:05.488Z,18.60
2018-03-27T11:54:05.471Z,17.70
2018-03-27T11:55:05.458Z,17.60
2018-03-27T11:56:05.450Z,16.50
2018-03-27T11:57:05.430Z,16.90
2018-03-27T11:58:05.421Z,16.60
2018-03-27T11:59:05.405Z,16.70
2018-03-27T12:00:05.401Z,17.00
2018-03-27T12:01:05.382Z,14.00
2018-03-27T12:02:05.369Z,15.50
2018-03-27T12:03:05.359Z,15.80
2018-03-27T12:04:05.341Z,15.60
2018-03-27T12:05:05.332Z,16.00
2018-03-27T12:06:05.332Z,16.20
2018-03-27T12:07:05.310Z,14.80
2018-03-27T12:08:05.294Z,15.00
2018-03-27T12:09:05.279Z,15.20
2018-03-27T12:10:05.268Z,15.70
2018-03-27T12:11:05.251Z,15.30
2018-03-27T12:12:05.243Z,15.10
2018-03-27T12:13:05.280Z,14.50
2018-03-27T12:14:05.212Z,15.00
2018-03-27T12:15:05.204Z,14.20
2018-03-27T12:16:05.200Z,14.00
2018-03-27T12:17:05.189Z,13.10
2018-03-27T12:18:05.164Z,13.20
2018-03-27T12:19:05.160Z,12.40
2018-03-27T12:20:05.133Z,13.20
2018-03-27T12:21:05.122Z,14.60
2018-03-27T12:22:05.111Z,13.90
2018-03-27T12:23:05.094Z,14.20
2018-03-27T12:24:05.083Z,14.90
2018-03-27T12:25:05.065Z,14.50
2018-03-27T12:26:05.056Z,14.00
2018-03-27T12:27:05.046Z,13.80
2018-03-27T12:28:05.033Z,13.90
2018-03-27T12:29:05.016Z,14.20
2018-03-27T12:30:04.995Z,14.20
2018-03-27T12:31:04.984Z,14.50
2018-03-27T12:32:04.972Z,13.70
2018-03-27T12:33:04.953Z,14.20
2018-03-27T12:34:04.939Z,13.10
2018-03-27T12:35:04.940Z,14.10
2018-03-27T12:36:04.917Z,14.30
2018-03-27T12:37:04.905Z,14.30
2018-03-27T12:38:04.886Z,13.30
2018-03-27T12:39:04.868Z,12.00
2018-03-27T12:40:04.851Z,13.20
2018-03-27T12:41:04.854Z,13.70
2018-03-27T12:42:04.830Z,12.90
2018-03-27T12:43:04.812Z,13.70
2018-03-27T12:44:04.800Z,14.60
2018-03-27T12:45:04.785Z,13.60
2018-03-27T12:46:04.774Z,14.10
2018-03-27T12:47:04.755Z,14.40
2018-03-27T12:48:04.741Z,13.50
2018-03-27T12:49:04.721Z,12.40
2018-03-27T12:50:04.713Z,12.30
2018-03-27T12:51:04.687Z,12.40
2018-03-27T12:52:04.680Z,13.70